createdAt,value
2019-04-25T00:00:17.638Z,100.00
2019-04-25T00:02:46.951Z,100.00
2019-04-25T00:05:16.568Z,100.00
2019-04-25T00:07:47.139Z,100.00
2019-04-25T00:10:16.830Z,100.00
2019-04-25T00:12:46.208Z,100.00
2019-04-25T00:15:15.481Z,100.00
2019-04-25T00:17:44.776Z,100.00
2019-04-25T00:20:14.659Z,100.00
2019-04-25T00:22:45.637Z,100.00
2019-04-25T00:25:32.856Z,100.00
2019-04-25T00:28:02.619Z,100.00
2019-04-25T00:30:33.121Z,100.00
2019-04-25T00:33:02.432Z,100.00
2019-04-25T00:35:32.175Z,100.00
2019-04-25T00:38:02.377Z,100.00
2019-04-25T00:40:32.284Z,100.00
2019-04-25T00:43:01.724Z,100.00
2019-04-25T00:45:31.697Z,100.00
2019-04-25T00:48:04.024Z,100.00
2019-04-25T00:50:33.806Z,100.00
2019-04-25T00:53:03.282Z,100.00
2019-04-25T00:55:32.679Z,100.00
2019-04-25T00:58:09.703Z,100.00
2019-04-25T01:00:43.454Z,100.00
2019-04-25T01:03:26.707Z,100.00
2019-04-25T01:05:56.292Z,100.00
2019-04-25T01:08:25.850Z,100.00
2019-04-25T01:10:55.520Z,100.00
2019-04-25T01:13:24.819Z,100.00
2019-04-25T01:15:54.744Z,100.00
2019-04-25T01:18:25.221Z,100.00
2019-04-25T01:20:55.475Z,100.00
2019-04-25T01:23:25.153Z,100.00
2019-04-25T01:25:54.806Z,100.00
2019-04-25T01:28:24.439Z,100.00
2019-04-25T01:30:55.051Z,100.00
2019-04-25T01:33:25.558Z,100.00
2019-04-25T01:36:05.786Z,100.00
2019-04-25T01:38:37.151Z,100.00
2019-04-25T01:41:20.086Z,100.00
2019-04-25T01:43:53.147Z,100.00
2019-04-25T01:46:24.214Z,100.00
2019-04-25T01:48:54.520Z,100.00
2019-04-25T01:51:24.555Z,100.00
2019-04-25T01:53:54.841Z,100.00
2019-04-25T01:56:25.199Z,100.00
2019-04-25T01:58:55.045Z,100.00
2019-04-25T02:01:25.610Z,100.00
2019-04-25T02:03:55.543Z,100.00
2019-04-25T02:06:25.130Z,100.00
2019-04-25T02:08:55.228Z,100.00
2019-04-25T02:11:34.000Z,100.00
2019-04-25T02:14:04.822Z,100.00
2019-04-25T02:16:35.405Z,100.00
2019-04-25T02:19:05.571Z,100.00
2019-04-25T02:21:35.048Z,100.00
2019-04-25T02:24:05.686Z,100.00
2019-04-25T02:26:35.544Z,100.00
2019-04-25T02:29:05.243Z,100.00
2019-04-25T02:31:34.980Z,100.00
2019-04-25T02:34:08.439Z,100.00
2019-04-25T02:36:36.112Z,100.00
2019-04-25T02:39:09.135Z,100.00
2019-04-25T02:41:38.967Z,100.00
2019-04-25T02:44:10.169Z,100.00
2019-04-25T02:46:41.656Z,100.00
2019-04-25T02:49:35.949Z,100.00
2019-04-25T02:52:18.045Z,100.00
2019-04-25T02:54:47.734Z,100.00
2019-04-25T02:57:17.418Z,100.00
2019-04-25T02:59:46.785Z,100.00
2019-04-25T03:02:16.120Z,100.00
2019-04-25T03:04:45.522Z,100.00
2019-04-25T03:07:17.563Z,100.00
2019-04-25T03:09:46.332Z,100.00
2019-04-25T03:12:29.194Z,100.00
2019-04-25T03:14:46.919Z,100.00
2019-04-25T03:17:16.259Z,100.00
2019-04-25T03:20:06.622Z,100.00
2019-04-25T03:22:34.813Z,100.00
2019-04-25T03:25:08.776Z,100.00
2019-04-25T03:27:37.076Z,100.00
2019-04-25T03:30:13.735Z,100.00
2019-04-25T03:32:40.636Z,100.00
2019-04-25T03:35:10.196Z,100.00
2019-04-25T03:37:39.519Z,100.00
2019-04-25T03:40:09.667Z,100.00
2019-04-25T03:42:39.158Z,100.00
2019-04-25T03:45:09.433Z,100.00
2019-04-25T03:47:39.186Z,100.00
2019-04-25T03:50:08.866Z,100.00
2019-04-25T03:52:38.676Z,100.00
2019-04-25T03:55:08.685Z,100.00
2019-04-25T03:57:38.171Z,100.00
2019-04-25T04:00:08.724Z,100.00
2019-04-25T04:02:38.076Z,100.00
2019-04-25T04:05:08.382Z,100.00
2019-04-25T04:07:38.512Z,100.00
2019-04-25T04:10:09.934Z,100.00
2019-04-25T04:12:39.252Z,100.00
2019-04-25T04:15:09.262Z,100.00
2019-04-25T04:17:40.197Z,100.00
2019-04-25T04:20:11.582Z,100.00
2019-04-25T04:22:43.854Z,100.00
2019-04-25T04:25:15.895Z,100.00
2019-04-25T04:27:45.370Z,100.00
2019-04-25T04:30:15.398Z,100.00
2019-04-25T04:32:45.020Z,100.00
2019-04-25T04:35:15.149Z,100.00
2019-04-25T04:37:45.727Z,100.00
2019-04-25T04:40:17.250Z,100.00
2019-04-25T04:42:46.157Z,100.00
2019-04-25T04:45:16.498Z,100.00
2019-04-25T04:47:46.378Z,100.00
2019-04-25T04:50:16.660Z,100.00
2019-04-25T04:52:46.247Z,100.00
2019-04-25T04:55:17.256Z,100.00
2019-04-25T04:57:46.809Z,100.00
2019-04-25T05:00:16.956Z,100.00
2019-04-25T05:02:50.998Z,99.06
2019-04-25T05:05:23.489Z,98.99
2019-04-25T05:07:54.578Z,98.46
2019-04-25T05:10:24.648Z,97.37
2019-04-25T05:12:54.298Z,96.80
2019-04-25T05:15:24.792Z,98.00
2019-04-25T05:17:54.529Z,96.44
2019-04-25T05:20:24.306Z,97.08
2019-04-25T05:22:54.936Z,95.29
2019-04-25T05:25:24.871Z,94.91
2019-04-25T05:28:00.728Z,100.00
2019-04-25T05:30:29.525Z,100.00
2019-04-25T05:32:58.836Z,100.00
2019-04-25T05:35:28.150Z,98.50
2019-04-25T05:37:57.429Z,99.48
2019-04-25T05:40:26.725Z,97.91
2019-04-25T05:43:06.401Z,96.90
2019-04-25T05:45:35.711Z,97.14
2019-04-25T05:48:06.067Z,98.41
2019-04-25T05:50:35.635Z,98.48
2019-04-25T05:53:04.935Z,95.28
2019-04-25T05:55:34.407Z,94.32
2019-04-25T05:58:04.062Z,92.42
2019-04-25T06:00:34.096Z,91.50
2019-04-25T06:03:03.884Z,91.32
2019-04-25T06:05:33.615Z,87.64
2019-04-25T06:08:04.371Z,89.11
2019-04-25T06:10:41.784Z,86.97
2019-04-25T06:13:13.769Z,86.97
2019-04-25T06:15:45.226Z,85.64
2019-04-25T06:18:16.206Z,83.59
2019-04-25T06:20:45.982Z,85.49
2019-04-25T06:23:20.567Z,86.86
2019-04-25T06:25:50.080Z,86.73
2019-04-25T06:28:21.723Z,86.66
2019-04-25T06:30:51.893Z,87.85
2019-04-25T06:33:23.680Z,87.60
2019-04-25T06:35:52.540Z,87.36
2019-04-25T06:38:24.826Z,83.67
2019-04-25T06:40:53.598Z,85.16
2019-04-25T06:43:24.570Z,87.86
2019-04-25T06:46:14.174Z,88.34
2019-04-25T06:48:51.205Z,86.82
2019-04-25T06:51:22.464Z,83.32
2019-04-25T06:53:53.362Z,83.33
2019-04-25T06:56:24.849Z,84.78
2019-04-25T06:58:54.989Z,81.08
2019-04-25T07:01:27.425Z,81.14
2019-04-25T07:03:56.359Z,81.50
2019-04-25T07:06:26.422Z,81.63
2019-04-25T07:08:56.606Z,82.89
2019-04-25T07:11:27.006Z,81.93
2019-04-25T07:13:56.718Z,80.63
2019-04-25T07:16:26.190Z,80.35
2019-04-25T07:18:55.756Z,80.12
2019-04-25T07:21:25.937Z,77.42
2019-04-25T07:23:55.580Z,77.47
2019-04-25T07:26:28.228Z,77.94
2019-04-25T07:29:03.287Z,77.12
2019-04-25T07:31:35.695Z,80.13
2019-04-25T07:34:07.093Z,83.30
2019-04-25T07:36:37.312Z,85.37
2019-04-25T07:39:10.553Z,85.28
2019-04-25T07:41:40.436Z,81.74
2019-04-25T07:44:09.908Z,81.54
2019-04-25T07:46:40.133Z,79.61
2019-04-25T07:49:09.811Z,81.52
2019-04-25T07:51:39.124Z,80.27
2019-04-25T07:54:08.411Z,80.40
2019-04-25T07:56:39.319Z,79.76
2019-04-25T07:59:08.682Z,81.56
2019-04-25T08:01:39.102Z,81.22
2019-04-25T08:04:08.840Z,82.29
2019-04-25T08:06:38.216Z,82.29
2019-04-25T08:09:11.215Z,83.23
2019-04-25T08:11:41.120Z,82.89
2019-04-25T08:14:12.136Z,83.56
2019-04-25T08:16:58.850Z,83.56
2019-04-25T08:19:28.712Z,83.24
2019-04-25T08:22:00.055Z,81.23
2019-04-25T08:24:31.179Z,82.12
2019-04-25T08:27:00.469Z,81.95
2019-04-25T08:29:31.745Z,79.69
2019-04-25T08:32:01.125Z,78.55
2019-04-25T08:34:31.012Z,75.83
2019-04-25T08:37:00.464Z,78.23
2019-04-25T08:39:30.443Z,75.65
2019-04-25T08:41:59.822Z,77.31
2019-04-25T08:44:29.128Z,76.17
2019-04-25T08:46:58.553Z,74.68
2019-04-25T08:49:29.503Z,73.79
2019-04-25T08:51:59.650Z,74.08
2019-04-25T08:54:31.038Z,74.50
2019-04-25T08:57:04.340Z,74.83
2019-04-25T08:59:52.277Z,73.10
2019-04-25T09:02:26.911Z,74.42
2019-04-25T09:05:14.480Z,73.21
2019-04-25T09:07:45.394Z,73.49
2019-04-25T09:10:15.296Z,73.87
2019-04-25T09:12:45.388Z,72.88
2019-04-25T09:15:15.827Z,74.55
2019-04-25T09:17:47.058Z,73.57
2019-04-25T09:20:16.885Z,75.60
2019-04-25T09:22:46.161Z,75.46
2019-04-25T09:25:17.134Z,75.30
2019-04-25T09:27:47.071Z,74.08
2019-04-25T09:30:17.190Z,75.82
2019-04-25T09:32:46.538Z,73.47
2019-04-25T09:35:15.922Z,74.54
2019-04-25T09:37:46.235Z,74.28
2019-04-25T09:40:17.135Z,72.46
2019-04-25T09:42:47.088Z,70.03
2019-04-25T09:45:20.067Z,68.77
2019-04-25T09:47:51.067Z,67.59
2019-04-25T09:50:38.345Z,64.51
2019-04-25T09:53:21.068Z,64.60
2019-04-25T09:55:50.717Z,66.29
2019-04-25T09:58:25.005Z,67.42
2019-04-25T10:01:01.717Z,64.56
2019-04-25T10:03:31.162Z,62.91
2019-04-25T10:06:00.643Z,60.84
2019-04-25T10:08:29.942Z,58.65
2019-04-25T10:10:59.342Z,57.86
2019-04-25T10:13:29.040Z,57.61
2019-04-25T10:16:03.759Z,56.08
2019-04-25T10:18:34.780Z,57.37
2019-04-25T10:21:07.216Z,54.03
2019-04-25T10:23:38.164Z,53.75
2019-04-25T10:26:10.545Z,51.70
2019-04-25T10:28:41.637Z,49.38
2019-04-25T10:31:13.602Z,49.36
2019-04-25T10:33:45.286Z,48.78
2019-04-25T10:36:14.544Z,48.13
2019-04-25T10:38:54.489Z,50.74
2019-04-25T10:41:16.378Z,50.79
2019-04-25T10:43:46.122Z,49.20
2019-04-25T10:46:17.946Z,48.08
2019-04-25T10:48:48.032Z,49.68
2019-04-25T10:51:17.647Z,49.00
2019-04-25T10:53:47.061Z,47.52
2019-04-25T10:56:16.522Z,48.99
2019-04-25T10:58:46.739Z,46.35
2019-04-25T11:01:16.425Z,45.77
2019-04-25T11:03:48.367Z,46.59
2019-04-25T11:06:20.175Z,46.87
2019-04-25T11:08:49.931Z,45.66
2019-04-25T11:11:19.298Z,46.29
2019-04-25T11:13:49.017Z,46.75
2019-04-25T11:16:18.393Z,45.42
2019-04-25T11:18:48.043Z,44.27
2019-04-25T11:21:17.513Z,45.62
2019-04-25T11:23:48.859Z,46.56
2019-04-25T11:26:20.331Z,47.94
2019-04-25T11:28:50.964Z,47.32
2019-04-25T11:31:23.527Z,47.80
2019-04-25T11:33:54.506Z,47.75
2019-04-25T11:36:24.991Z,47.84
2019-04-25T11:39:13.565Z,47.68
2019-04-25T11:41:46.198Z,48.60
2019-04-25T11:44:14.718Z,48.47
2019-04-25T11:46:45.751Z,48.83
2019-04-25T11:49:15.649Z,48.75
2019-04-25T11:51:46.034Z,49.29
2019-04-25T11:54:15.572Z,48.92
2019-04-25T11:56:46.073Z,49.22
2019-04-25T11:59:16.283Z,49.85
2019-04-25T12:01:47.551Z,48.51
2019-04-25T12:04:17.378Z,48.25
2019-04-25T12:06:47.650Z,48.40
2019-04-25T12:09:18.217Z,50.35
2019-04-25T12:11:48.522Z,49.96
2019-04-25T12:14:18.199Z,51.22
2019-04-25T12:16:50.317Z,51.45
2019-04-25T12:19:19.563Z,51.77
2019-04-25T12:21:50.255Z,51.27
2019-04-25T12:24:19.654Z,50.14
2019-04-25T12:26:49.598Z,50.24
2019-04-25T12:29:19.363Z,49.92
2019-04-25T12:31:49.261Z,51.06
2019-04-25T12:34:18.746Z,50.31
2019-04-25T12:36:48.479Z,50.48
2019-04-25T12:39:18.344Z,49.71
2019-04-25T12:41:49.019Z,49.58
2019-04-25T12:44:36.923Z,49.26
2019-04-25T12:47:20.059Z,48.37
2019-04-25T12:49:49.448Z,48.13
2019-04-25T12:52:18.838Z,47.31
2019-04-25T12:54:49.151Z,46.96
2019-04-25T12:57:18.887Z,46.67
2019-04-25T12:59:49.150Z,44.43
2019-04-25T13:02:18.737Z,44.97
2019-04-25T13:04:48.129Z,44.14
2019-04-25T13:07:17.523Z,45.11
2019-04-25T13:09:48.305Z,46.55
2019-04-25T13:12:19.930Z,45.91
2019-04-25T13:14:49.520Z,45.40
2019-04-25T13:17:19.065Z,45.18
2019-04-25T13:19:48.414Z,46.42
2019-04-25T13:22:18.093Z,47.03
2019-04-25T13:24:47.549Z,47.50
2019-04-25T13:27:24.245Z,46.16
2019-04-25T13:30:00.956Z,46.27
2019-04-25T13:32:32.080Z,47.11
2019-04-25T13:35:03.816Z,45.39
2019-04-25T13:37:34.241Z,44.71
2019-04-25T13:40:04.865Z,44.27
2019-04-25T13:42:34.141Z,45.11
2019-04-25T13:45:05.167Z,45.61
2019-04-25T13:47:35.317Z,45.97
2019-04-25T13:50:07.851Z,46.70
2019-04-25T13:52:37.275Z,45.71
2019-04-25T13:55:06.947Z,46.92
2019-04-25T13:57:36.359Z,47.49
2019-04-25T14:00:09.438Z,46.54
2019-04-25T14:02:38.822Z,45.56
2019-04-25T14:05:08.688Z,47.46
2019-04-25T14:07:37.986Z,46.64
2019-04-25T14:10:07.698Z,47.50
2019-04-25T14:12:37.004Z,47.41
2019-04-25T14:15:08.765Z,47.63
2019-04-25T14:17:40.239Z,47.17
2019-04-25T14:20:14.402Z,47.40
2019-04-25T14:22:45.382Z,47.97
2019-04-25T14:25:15.633Z,49.11
2019-04-25T14:27:44.959Z,49.48
2019-04-25T14:30:16.447Z,49.88
2019-04-25T14:32:45.812Z,48.84
2019-04-25T14:35:16.245Z,49.58
2019-04-25T14:37:45.540Z,49.10
2019-04-25T14:40:15.241Z,49.33
2019-04-25T14:42:44.541Z,48.80
2019-04-25T14:45:15.118Z,49.90
2019-04-25T14:47:44.416Z,49.47
2019-04-25T14:50:13.775Z,49.18
2019-04-25T14:52:43.148Z,49.19
2019-04-25T14:55:31.627Z,49.71
2019-04-25T14:58:02.992Z,49.63
2019-04-25T15:00:42.827Z,50.40
2019-04-25T15:03:12.216Z,50.75
2019-04-25T15:05:43.417Z,52.35
2019-04-25T15:08:12.625Z,51.47
2019-04-25T15:10:41.987Z,51.52
2019-04-25T15:13:12.002Z,50.38
2019-04-25T15:15:41.410Z,51.43
2019-04-25T15:18:10.865Z,51.18
2019-04-25T15:20:40.145Z,50.82
2019-04-25T15:23:09.452Z,50.90
2019-04-25T15:25:39.301Z,50.56
2019-04-25T15:28:08.826Z,50.11
2019-04-25T15:30:39.381Z,49.21
2019-04-25T15:33:09.020Z,49.52
2019-04-25T15:35:48.446Z,50.32
2019-04-25T15:38:19.369Z,51.53
2019-04-25T15:40:52.803Z,51.54
2019-04-25T15:43:23.783Z,50.83
2019-04-25T15:45:54.724Z,50.53
2019-04-25T15:48:24.210Z,50.04
2019-04-25T15:50:55.659Z,50.77
2019-04-25T15:53:25.569Z,50.07
2019-04-25T15:55:54.875Z,49.54
2019-04-25T15:58:24.251Z,49.98
2019-04-25T16:00:53.534Z,49.66
2019-04-25T16:03:22.819Z,49.19
2019-04-25T16:05:52.188Z,48.27
2019-04-25T16:08:21.509Z,47.77
2019-04-25T16:10:50.804Z,47.84
2019-04-25T16:13:20.190Z,46.55
2019-04-25T16:15:49.489Z,46.99
2019-04-25T16:18:18.939Z,47.24
2019-04-25T16:20:48.240Z,46.63
2019-04-25T16:23:18.509Z,46.09
2019-04-25T16:25:47.799Z,46.02
2019-04-25T16:28:17.100Z,46.44
2019-04-25T16:30:46.483Z,45.58
2019-04-25T16:33:15.855Z,45.53
2019-04-25T16:35:45.144Z,45.50
2019-04-25T16:38:14.823Z,45.04
2019-04-25T16:40:44.198Z,45.12
2019-04-25T16:43:15.209Z,46.60
2019-04-25T16:45:44.758Z,48.65
2019-04-25T16:48:14.503Z,49.23
2019-04-25T16:50:43.807Z,49.38
2019-04-25T16:53:13.539Z,49.76
2019-04-25T16:55:42.840Z,49.96
2019-04-25T16:58:13.197Z,50.29
2019-04-25T17:00:47.255Z,50.62
2019-04-25T17:03:17.468Z,51.55
2019-04-25T17:05:46.805Z,52.27
2019-04-25T17:08:16.530Z,53.25
2019-04-25T17:10:45.873Z,54.08
2019-04-25T17:13:15.448Z,54.09
2019-04-25T17:15:52.261Z,54.19
2019-04-25T17:18:25.596Z,54.98
2019-04-25T17:21:08.561Z,54.52
2019-04-25T17:23:37.864Z,54.90
2019-04-25T17:26:08.187Z,55.22
2019-04-25T17:28:39.250Z,56.41
2019-04-25T17:31:28.561Z,56.60
2019-04-25T17:34:08.776Z,56.87
2019-04-25T17:36:58.320Z,57.24
2019-04-25T17:39:29.285Z,57.29
2019-04-25T17:42:01.410Z,58.52
2019-04-25T17:44:30.240Z,58.59
2019-04-25T17:47:06.162Z,59.01
2019-04-25T17:49:30.685Z,60.50
2019-04-25T17:52:00.067Z,61.38
2019-04-25T17:54:29.446Z,61.17
2019-04-25T17:56:58.765Z,62.57
2019-04-25T17:59:28.503Z,62.55
2019-04-25T18:01:57.834Z,63.85
2019-04-25T18:04:27.394Z,63.60
2019-04-25T18:06:56.926Z,63.27
2019-04-25T18:09:26.739Z,64.46
2019-04-25T18:11:56.031Z,64.68
2019-04-25T18:14:25.392Z,65.46
2019-04-25T18:16:54.681Z,65.84
2019-04-25T18:19:44.742Z,66.22
2019-04-25T18:22:15.685Z,67.66
2019-04-25T18:24:58.779Z,68.71
2019-04-25T18:27:29.755Z,70.42
2019-04-25T18:29:59.066Z,71.45
2019-04-25T18:32:30.148Z,72.69
2019-04-25T18:35:01.174Z,73.75
2019-04-25T18:37:35.004Z,74.07
2019-04-25T18:40:23.484Z,75.21
2019-04-25T18:43:00.995Z,75.73
2019-04-25T18:45:32.141Z,76.29
2019-04-25T18:48:01.438Z,74.95
2019-04-25T18:50:32.386Z,74.05
2019-04-25T18:53:18.412Z,75.18
2019-04-25T18:55:52.659Z,75.27
2019-04-25T18:58:29.952Z,75.91
2019-04-25T19:01:03.768Z,75.43
2019-04-25T19:03:50.683Z,73.75
2019-04-25T19:06:22.021Z,72.81
2019-04-25T19:08:53.413Z,71.16
2019-04-25T19:11:24.930Z,72.17
2019-04-25T19:13:54.227Z,72.32
2019-04-25T19:16:23.898Z,72.26
2019-04-25T19:18:53.218Z,72.19
2019-04-25T19:21:22.668Z,72.71
2019-04-25T19:23:52.756Z,73.03
2019-04-25T19:26:22.649Z,73.68
2019-04-25T19:28:52.215Z,73.00
2019-04-25T19:31:21.704Z,73.29
2019-04-25T19:33:51.749Z,73.16
2019-04-25T19:36:21.633Z,73.87
2019-04-25T19:38:50.953Z,74.20
2019-04-25T19:41:28.642Z,74.46
2019-04-25T19:43:59.908Z,75.36
2019-04-25T19:46:30.870Z,75.07
2019-04-25T19:49:00.259Z,75.24
2019-04-25T19:51:29.598Z,74.54
2019-04-25T19:53:59.239Z,75.09
2019-04-25T19:56:28.880Z,75.41
2019-04-25T19:58:58.469Z,74.10
2019-04-25T20:01:28.182Z,76.04
2019-04-25T20:04:00.679Z,76.37
2019-04-25T20:06:47.550Z,76.42
2019-04-25T20:09:30.394Z,77.14
2019-04-25T20:11:59.893Z,73.65
2019-04-25T20:14:29.512Z,73.31
2019-04-25T20:16:58.834Z,74.69
2019-04-25T20:19:28.703Z,75.20
2019-04-25T20:21:58.033Z,74.94
2019-04-25T20:24:27.383Z,75.75
2019-04-25T20:26:56.764Z,75.43
2019-04-25T20:29:27.055Z,75.62
2019-04-25T20:31:56.417Z,75.75
2019-04-25T20:34:25.688Z,76.61
2019-04-25T20:36:55.791Z,75.71
2019-04-25T20:39:27.780Z,76.82
2019-04-25T20:41:56.466Z,77.20
2019-04-25T20:44:25.792Z,76.45
2019-04-25T20:46:55.354Z,77.46
2019-04-25T20:49:24.719Z,77.44
2019-04-25T20:51:54.693Z,78.17
2019-04-25T20:54:24.404Z,77.27
2019-04-25T20:56:53.738Z,78.92
2019-04-25T20:59:23.315Z,77.36
2019-04-25T21:01:53.518Z,77.98
2019-04-25T21:04:42.955Z,76.99
2019-04-25T21:07:13.469Z,78.24
2019-04-25T21:09:42.971Z,78.99
2019-04-25T21:12:12.276Z,79.48
2019-04-25T21:14:46.402Z,81.65
2019-04-25T21:17:20.080Z,80.70
2019-04-25T21:19:51.769Z,80.94
2019-04-25T21:22:22.221Z,81.10
2019-04-25T21:24:51.857Z,80.20
2019-04-25T21:27:21.284Z,80.55
2019-04-25T21:29:51.995Z,81.29
2019-04-25T21:32:23.194Z,80.52
2019-04-25T21:34:53.117Z,81.09
2019-04-25T21:37:22.532Z,81.24
2019-04-25T21:40:03.051Z,81.03
2019-04-25T21:42:34.281Z,81.96
2019-04-25T21:45:05.477Z,82.26
2019-04-25T21:47:37.807Z,81.54
2019-04-25T21:50:08.352Z,81.76
2019-04-25T21:52:38.003Z,81.58
2019-04-25T21:55:08.528Z,81.39
2019-04-25T21:57:38.203Z,82.37
2019-04-25T22:00:11.521Z,82.71
2019-04-25T22:02:41.367Z,81.10
2019-04-25T22:05:11.950Z,81.16
2019-04-25T22:07:41.718Z,81.41
2019-04-25T22:10:11.758Z,83.13
2019-04-25T22:12:41.146Z,84.46
2019-04-25T22:15:13.260Z,84.92
2019-04-25T22:17:42.779Z,84.94
2019-04-25T22:20:12.169Z,84.66
2019-04-25T22:22:41.872Z,85.86
2019-04-25T22:25:11.299Z,85.86
2019-04-25T22:27:40.950Z,86.60
2019-04-25T22:30:12.442Z,88.44
2019-04-25T22:32:55.807Z,88.08
2019-04-25T22:35:26.731Z,88.40
2019-04-25T22:37:56.049Z,87.87
2019-04-25T22:40:25.346Z,88.09
2019-04-25T22:42:54.868Z,88.45
2019-04-25T22:45:24.632Z,88.84
2019-04-25T22:47:54.760Z,88.73
2019-04-25T22:50:24.458Z,87.68
2019-04-25T22:52:54.020Z,90.06
2019-04-25T22:55:23.326Z,89.40
2019-04-25T22:57:53.010Z,88.55
2019-04-25T23:00:26.723Z,88.99
2019-04-25T23:03:01.999Z,89.23
2019-04-25T23:05:33.962Z,89.45
2019-04-25T23:08:04.146Z,89.99
2019-04-25T23:10:33.609Z,91.71
2019-04-25T23:13:04.611Z,92.08
2019-04-25T23:15:34.445Z,91.51
2019-04-25T23:18:05.273Z,90.87
2019-04-25T23:20:34.859Z,91.56
2019-04-25T23:23:04.761Z,91.98
2019-04-25T23:25:37.120Z,91.22
2019-04-25T23:28:10.483Z,92.74
2019-04-25T23:30:45.159Z,93.02
2019-04-25T23:33:14.711Z,92.75
2019-04-25T23:35:46.085Z,92.86
2019-04-25T23:38:16.117Z,92.57
2019-04-25T23:40:45.683Z,92.42
2019-04-25T23:43:15.897Z,92.34
2019-04-25T23:45:45.277Z,92.51
2019-04-25T23:48:15.336Z,91.88
2019-04-25T23:50:44.626Z,91.32
2019-04-25T23:53:15.032Z,92.17
2019-04-25T23:55:45.031Z,92.06
2019-04-25T23:58:14.670Z,92.23
